sensor_id;sensor_type;location;lat;lon;timestamp;pressure;altitude;pressure_sealevel;temperature;humidity
70900;BME280;67902;52.154;5.430;2023-06-04T00:00:02;102329.84;;;12.93;65.57
70900;BME280;67902;52.154;5.430;2023-06-04T00:02:29;102328.84;;;12.87;66.96
70900;BME280;67902;52.154;5.430;2023-06-04T00:04:56;102322.97;;;12.90;67.16
70900;BME280;67902;52.154;5.430;2023-06-04T00:07:22;102323.03;;;12.84;67.48
70900;BME280;67902;52.154;5.430;2023-06-04T00:09:48;102323.47;;;12.80;67.64
70900;BME280;67902;52.154;5.430;2023-06-04T00:12:15;102335.03;;;12.76;67.92
70900;BME280;67902;52.154;5.430;2023-06-04T00:14:42;102330.25;;;12.71;68.25
70900;BME280;67902;52.154;5.430;2023-06-04T00:17:08;102331.50;;;12.69;68.53
70900;BME280;67902;52.154;5.430;2023-06-04T00:19:38;102326.16;;;12.62;68.95
70900;BME280;67902;52.154;5.430;2023-06-04T00:22:05;102333.28;;;12.57;68.83
70900;BME280;67902;52.154;5.430;2023-06-04T00:24:32;102327.47;;;12.53;69.13
70900;BME280;67902;52.154;5.430;2023-06-04T00:26:59;102324.63;;;12.42;68.22
70900;BME280;67902;52.154;5.430;2023-06-04T00:29:25;102319.00;;;12.37;69.16
70900;BME280;67902;52.154;5.430;2023-06-04T00:31:52;102317.13;;;12.37;69.19
70900;BME280;67902;52.154;5.430;2023-06-04T00:34:18;102320.28;;;12.34;68.88
70900;BME280;67902;52.154;5.430;2023-06-04T00:36:45;102318.69;;;12.27;69.43
70900;BME280;67902;52.154;5.430;2023-06-04T00:39:11;102323.91;;;12.21;69.25
70900;BME280;67902;52.154;5.430;2023-06-04T00:41:38;102317.28;;;12.17;69.34
70900;BME280;67902;52.154;5.430;2023-06-04T00:44:04;102320.41;;;12.14;69.75
70900;BME280;67902;52.154;5.430;2023-06-04T00:46:34;102318.75;;;12.13;70.12
70900;BME280;67902;52.154;5.430;2023-06-04T00:49:02;102323.16;;;12.08;70.11
70900;BME280;67902;52.154;5.430;2023-06-04T00:51:30;102324.88;;;12.02;70.02
70900;BME280;67902;52.154;5.430;2023-06-04T00:53:58;102322.38;;;12.01;70.32
70900;BME280;67902;52.154;5.430;2023-06-04T00:56:24;102320.28;;;11.96;70.06
70900;BME280;67902;52.154;5.430;2023-06-04T00:58:51;102321.78;;;11.92;70.24
70900;BME280;67902;52.154;5.430;2023-06-04T01:01:21;102321.63;;;11.87;70.55
70900;BME280;67902;52.154;5.430;2023-06-04T01:03:51;102325.13;;;11.88;70.32
70900;BME280;67902;52.154;5.430;2023-06-04T01:06:39;102323.31;;;11.69;69.64
70900;BME280;67902;52.154;5.430;2023-06-04T01:09:10;102331.69;;;11.60;70.79
70900;BME280;67902;52.154;5.430;2023-06-04T01:11:38;102325.69;;;11.52;70.79
70900;BME280;67902;52.154;5.430;2023-06-04T01:14:06;102322.56;;;11.48;71.47
70900;BME280;67902;52.154;5.430;2023-06-04T01:16:47;102327.13;;;11.54;71.22
70900;BME280;67902;52.154;5.430;2023-06-04T01:25:09;102316.34;;;11.41;71.69
70900;BME280;67902;52.154;5.430;2023-06-04T01:27:38;102322.78;;;11.40;71.73
70900;BME280;67902;52.154;5.430;2023-06-04T01:30:07;102325.72;;;11.39;71.69
70900;BME280;67902;52.154;5.430;2023-06-04T01:32:35;102327.00;;;11.36;71.63
70900;BME280;67902;52.154;5.430;2023-06-04T01:35:02;102323.88;;;11.33;72.41
70900;BME280;67902;52.154;5.430;2023-06-04T01:37:28;102330.56;;;11.30;72.02
70900;BME280;67902;52.154;5.430;2023-06-04T01:39:55;102332.00;;;11.26;72.26
70900;BME280;67902;52.154;5.430;2023-06-04T01:42:21;102328.06;;;11.22;72.40
70900;BME280;67902;52.154;5.430;2023-06-04T01:44:48;102332.66;;;11.22;72.17
70900;BME280;67902;52.154;5.430;2023-06-04T01:47:14;102327.44;;;11.20;72.65
70900;BME280;67902;52.154;5.430;2023-06-04T01:49:41;102325.13;;;11.17;72.11
70900;BME280;67902;52.154;5.430;2023-06-04T01:52:07;102323.91;;;11.13;72.56
70900;BME280;67902;52.154;5.430;2023-06-04T01:54:34;102325.78;;;11.06;72.51
70900;BME280;67902;52.154;5.430;2023-06-04T01:57:00;102323.06;;;11.06;72.56
70900;BME280;67902;52.154;5.430;2023-06-04T01:59:27;102325.16;;;11.04;72.44
70900;BME280;67902;52.154;5.430;2023-06-04T02:01:53;102326.00;;;10.98;72.77
70900;BME280;67902;52.154;5.430;2023-06-04T02:04:19;102327.25;;;10.95;72.15
70900;BME280;67902;52.154;5.430;2023-06-04T02:06:47;102323.94;;;10.87;72.43
70900;BME280;67902;52.154;5.430;2023-06-04T02:09:14;102323.50;;;10.90;71.80
70900;BME280;67902;52.154;5.430;2023-06-04T02:11:41;102329.75;;;10.84;72.38
70900;BME280;67902;52.154;5.430;2023-06-04T02:14:07;102325.59;;;10.88;73.19
70900;BME280;67902;52.154;5.430;2023-06-04T02:16:34;102323.94;;;10.80;72.42
70900;BME280;67902;52.154;5.430;2023-06-04T02:19:00;102322.50;;;10.78;73.12
70900;BME280;67902;52.154;5.430;2023-06-04T02:21:27;102326.03;;;10.72;72.55
70900;BME280;67902;52.154;5.430;2023-06-04T02:23:53;102322.69;;;10.70;73.33
70900;BME280;67902;52.154;5.430;2023-06-04T02:26:19;102329.34;;;10.67;73.42
70900;BME280;67902;52.154;5.430;2023-06-04T02:28:46;102325.59;;;10.62;73.75
70900;BME280;67902;52.154;5.430;2023-06-04T02:31:12;102328.13;;;10.63;73.57
70900;BME280;67902;52.154;5.430;2023-06-04T02:33:39;102331.03;;;10.62;73.84
70900;BME280;67902;52.154;5.430;2023-06-04T02:36:05;102334.38;;;10.64;73.54
70900;BME280;67902;52.154;5.430;2023-06-04T02:38:32;102329.13;;;10.56;72.23
70900;BME280;67902;52.154;5.430;2023-06-04T02:40:59;102325.19;;;10.58;73.45
70900;BME280;67902;52.154;5.430;2023-06-04T02:43:26;102323.94;;;10.61;72.55
70900;BME280;67902;52.154;5.430;2023-06-04T02:45:52;102328.53;;;10.54;72.16
70900;BME280;67902;52.154;5.430;2023-06-04T02:48:18;102332.25;;;10.53;72.85
70900;BME280;67902;52.154;5.430;2023-06-04T02:50:45;102333.09;;;10.46;73.16
70900;BME280;67902;52.154;5.430;2023-06-04T02:53:12;102319.56;;;10.46;73.11
70900;BME280;67902;52.154;5.430;2023-06-04T02:55:38;102318.09;;;10.44;73.34
70900;BME280;67902;52.154;5.430;2023-06-04T02:58:04;102323.28;;;10.39;72.87
70900;BME280;67902;52.154;5.430;2023-06-04T03:00:31;102324.31;;;10.31;73.01
70900;BME280;67902;52.154;5.430;2023-06-04T03:02:57;102316.81;;;10.33;72.70
70900;BME280;67902;52.154;5.430;2023-06-04T03:05:28;102325.34;;;10.30;73.03
70900;BME280;67902;52.154;5.430;2023-06-04T03:07:57;102321.59;;;10.18;73.02
70900;BME280;67902;52.154;5.430;2023-06-04T03:10:24;102322.63;;;10.17;73.36
70900;BME280;67902;52.154;5.430;2023-06-04T03:12:51;102315.97;;;10.20;74.09
70900;BME280;67902;52.154;5.430;2023-06-04T03:15:18;102322.22;;;10.20;73.70
70900;BME280;67902;52.154;5.430;2023-06-04T03:17:44;102317.84;;;10.19;73.63
70900;BME280;67902;52.154;5.430;2023-06-04T03:20:11;102317.03;;;10.19;73.32
70900;BME280;67902;52.154;5.430;2023-06-04T03:22:37;102314.09;;;10.20;73.96
70900;BME280;67902;52.154;5.430;2023-06-04T03:25:04;102325.09;;;10.12;73.84
70900;BME280;67902;52.154;5.430;2023-06-04T03:27:32;102323.63;;;10.10;73.96
70900;BME280;67902;52.154;5.430;2023-06-04T03:29:59;102321.41;;;10.13;73.46
70900;BME280;67902;52.154;5.430;2023-06-04T03:32:25;102330.91;;;10.09;73.93
70900;BME280;67902;52.154;5.430;2023-06-04T03:34:52;102332.34;;;10.05;73.97
70900;BME280;67902;52.154;5.430;2023-06-04T03:37:18;102335.31;;;10.10;73.48
70900;BME280;67902;52.154;5.430;2023-06-04T03:39:45;102325.50;;;10.09;73.76
70900;BME280;67902;52.154;5.430;2023-06-04T03:42:11;102323.19;;;10.06;74.01
70900;BME280;67902;52.154;5.430;2023-06-04T03:44:38;102329.03;;;10.03;75.04
70900;BME280;67902;52.154;5.430;2023-06-04T03:47:04;102329.66;;;10.12;74.35
70900;BME280;67902;52.154;5.430;2023-06-04T03:49:31;102324.25;;;10.12;74.40
70900;BME280;67902;52.154;5.430;2023-06-04T03:51:57;102327.16;;;10.04;74.04
70900;BME280;67902;52.154;5.430;2023-06-04T03:54:23;102331.53;;;10.05;73.92
70900;BME280;67902;52.154;5.430;2023-06-04T03:56:50;102326.31;;;10.03;74.65
70900;BME280;67902;52.154;5.430;2023-06-04T03:59:16;102331.94;;;10.08;76.02
70900;BME280;67902;52.154;5.430;2023-06-04T04:01:43;102323.03;;;10.14;75.36
70900;BME280;67902;52.154;5.430;2023-06-04T04:04:10;102328.44;;;10.14;75.11
70900;BME280;67902;52.154;5.430;2023-06-04T04:06:36;102323.66;;;10.16;75.08
70900;BME280;67902;52.154;5.430;2023-06-04T04:09:03;102328.44;;;10.14;76.06
70900;BME280;67902;52.154;5.430;2023-06-04T04:11:32;102317.25;;;10.24;75.04
70900;BME280;67902;52.154;5.430;2023-06-04T04:13:58;102330.56;;;10.25;75.67
70900;BME280;67902;52.154;5.430;2023-06-04T04:16:24;102333.06;;;10.27;75.29
70900;BME280;67902;52.154;5.430;2023-06-04T04:18:51;102322.88;;;10.29;75.89
70900;BME280;67902;52.154;5.430;2023-06-04T04:21:18;102329.75;;;10.31;75.42
70900;BME280;67902;52.154;5.430;2023-06-04T04:23:45;102330.16;;;10.41;75.83
70900;BME280;67902;52.154;5.430;2023-06-04T04:26:12;102330.59;;;10.45;75.85
70900;BME280;67902;52.154;5.430;2023-06-04T04:28:43;102329.34;;;10.47;75.59
70900;BME280;67902;52.154;5.430;2023-06-04T04:31:09;102329.34;;;10.54;76.67
70900;BME280;67902;52.154;5.430;2023-06-04T04:33:36;102331.25;;;10.60;76.97
70900;BME280;67902;52.154;5.430;2023-06-04T04:36:06;102337.28;;;10.69;76.03
70900;BME280;67902;52.154;5.430;2023-06-04T04:38:40;102333.13;;;10.66;76.55
70900;BME280;67902;52.154;5.430;2023-06-04T04:41:07;102340.38;;;10.72;76.00
70900;BME280;67902;52.154;5.430;2023-06-04T04:43:36;102331.25;;;10.80;76.10
70900;BME280;67902;52.154;5.430;2023-06-04T04:46:03;102328.50;;;10.86;76.44
70900;BME280;67902;52.154;5.430;2023-06-04T04:48:31;102332.25;;;10.92;76.12
70900;BME280;67902;52.154;5.430;2023-06-04T04:50:58;102334.34;;;10.96;76.07
70900;BME280;67902;52.154;5.430;2023-06-04T04:53:25;102341.00;;;11.00;76.12
70900;BME280;67902;52.154;5.430;2023-06-04T04:55:52;102338.31;;;11.07;75.80
70900;BME280;67902;52.154;5.430;2023-06-04T04:58:18;102341.84;;;11.14;75.92
70900;BME280;67902;52.154;5.430;2023-06-04T05:00:45;102335.56;;;11.20;75.74
70900;BME280;67902;52.154;5.430;2023-06-04T05:03:13;102332.44;;;11.23;75.92
70900;BME280;67902;52.154;5.430;2023-06-04T05:05:40;102328.25;;;11.34;75.84
70900;BME280;67902;52.154;5.430;2023-06-04T05:08:07;102332.19;;;11.44;76.08
70900;BME280;67902;52.154;5.430;2023-06-04T05:10:33;102337.56;;;11.51;76.14
70900;BME280;67902;52.154;5.430;2023-06-04T05:13:02;102344.66;;;11.58;77.09
70900;BME280;67902;52.154;5.430;2023-06-04T05:15:28;102341.31;;;11.70;75.67
70900;BME280;67902;52.154;5.430;2023-06-04T05:17:55;102343.34;;;11.81;75.83
70900;BME280;67902;52.154;5.430;2023-06-04T05:20:22;102344.78;;;11.90;75.59
70900;BME280;67902;52.154;5.430;2023-06-04T05:22:49;102349.09;;;12.04;74.98
70900;BME280;67902;52.154;5.430;2023-06-04T05:25:16;102332.72;;;12.17;74.60
70900;BME280;67902;52.154;5.430;2023-06-04T05:27:42;102339.75;;;12.31;74.92
70900;BME280;67902;52.154;5.430;2023-06-04T05:30:09;102334.66;;;12.41;74.81
70900;BME280;67902;52.154;5.430;2023-06-04T05:32:36;102341.66;;;12.55;73.91
70900;BME280;67902;52.154;5.430;2023-06-04T05:35:08;102336.13;;;12.68;73.85
70900;BME280;67902;52.154;5.430;2023-06-04T05:37:35;102339.78;;;12.80;73.47
70900;BME280;67902;52.154;5.430;2023-06-04T05:40:05;102340.25;;;13.02;73.26
70900;BME280;67902;52.154;5.430;2023-06-04T05:42:31;102337.19;;;13.17;72.76
70900;BME280;67902;52.154;5.430;2023-06-04T05:44:58;102343.41;;;13.24;71.88
70900;BME280;67902;52.154;5.430;2023-06-04T05:47:24;102339.78;;;13.30;70.84
70900;BME280;67902;52.154;5.430;2023-06-04T05:49:51;102345.06;;;13.43;71.11
70900;BME280;67902;52.154;5.430;2023-06-04T05:52:17;102342.63;;;13.53;70.73
70900;BME280;67902;52.154;5.430;2023-06-04T05:54:44;102340.25;;;13.63;70.98
70900;BME280;67902;52.154;5.430;2023-06-04T05:57:10;102333.56;;;13.77;69.24
70900;BME280;67902;52.154;5.430;2023-06-04T05:59:37;102334.16;;;13.79;68.99
70900;BME280;67902;52.154;5.430;2023-06-04T06:02:03;102339.44;;;13.92;69.43
70900;BME280;67902;52.154;5.430;2023-06-04T06:04:30;102341.75;;;14.07;69.72
70900;BME280;67902;52.154;5.430;2023-06-04T06:06:57;102342.41;;;14.21;68.75
70900;BME280;67902;52.154;5.430;2023-06-04T06:09:24;102340.19;;;14.29;68.26
70900;BME280;67902;52.154;5.430;2023-06-04T06:11:50;102347.63;;;14.52;67.38
70900;BME280;67902;52.154;5.430;2023-06-04T06:14:16;102352.75;;;14.60;66.04
70900;BME280;67902;52.154;5.430;2023-06-04T06:16:43;102345.34;;;14.79;65.73
70900;BME280;67902;52.154;5.430;2023-06-04T06:19:09;102350.56;;;15.15;65.81
70900;BME280;67902;52.154;5.430;2023-06-04T06:21:37;102349.97;;;15.59;64.31
70900;BME280;67902;52.154;5.430;2023-06-04T06:24:03;102342.53;;;16.11;63.15
70900;BME280;67902;52.154;5.430;2023-06-04T06:26:30;102345.19;;;16.63;61.16
70900;BME280;67902;52.154;5.430;2023-06-04T06:28:57;102344.41;;;16.67;59.68
70900;BME280;67902;52.154;5.430;2023-06-04T06:31:23;102353.88;;;16.93;58.83
70900;BME280;67902;52.154;5.430;2023-06-04T06:33:50;102349.59;;;16.97;58.30
70900;BME280;67902;52.154;5.430;2023-06-04T06:36:16;102349.22;;;17.10;58.40
70900;BME280;67902;52.154;5.430;2023-06-04T06:38:45;102345.22;;;17.34;57.40
70900;BME280;67902;52.154;5.430;2023-06-04T06:41:12;102344.69;;;17.37;58.56
70900;BME280;67902;52.154;5.430;2023-06-04T06:43:39;102344.91;;;17.53;56.45
70900;BME280;67902;52.154;5.430;2023-06-04T06:46:06;102347.56;;;17.64;57.65
70900;BME280;67902;52.154;5.430;2023-06-04T06:48:33;102346.00;;;17.68;58.65
70900;BME280;67902;52.154;5.430;2023-06-04T06:50:59;102340.97;;;17.82;55.54
70900;BME280;67902;52.154;5.430;2023-06-04T06:53:25;102345.97;;;17.90;55.20
70900;BME280;67902;52.154;5.430;2023-06-04T06:55:52;102351.25;;;17.75;54.62
70900;BME280;67902;52.154;5.430;2023-06-04T06:58:18;102354.78;;;17.70;56.94
70900;BME280;67902;52.154;5.430;2023-06-04T07:00:44;102358.09;;;17.72;55.20
70900;BME280;67902;52.154;5.430;2023-06-04T07:03:11;102360.59;;;17.74;56.29
70900;BME280;67902;52.154;5.430;2023-06-04T07:05:38;102357.41;;;17.82;55.40
70900;BME280;67902;52.154;5.430;2023-06-04T07:08:04;102362.72;;;17.72;55.65
70900;BME280;67902;52.154;5.430;2023-06-04T07:10:30;102367.59;;;17.65;55.96
70900;BME280;67902;52.154;5.430;2023-06-04T07:12:57;102361.59;;;17.68;57.31
70900;BME280;67902;52.154;5.430;2023-06-04T07:15:23;102365.75;;;17.70;54.31
70900;BME280;67902;52.154;5.430;2023-06-04T07:17:50;102367.63;;;17.91;55.50
70900;BME280;67902;52.154;5.430;2023-06-04T07:20:16;102365.84;;;17.80;55.01
70900;BME280;67902;52.154;5.430;2023-06-04T07:22:43;102369.69;;;17.79;55.25
70900;BME280;67902;52.154;5.430;2023-06-04T07:25:09;102372.47;;;18.06;54.80
70900;BME280;67902;52.154;5.430;2023-06-04T07:27:36;102371.19;;;18.14;54.88
70900;BME280;67902;52.154;5.430;2023-06-04T07:30:03;102367.47;;;18.25;52.69
70900;BME280;67902;52.154;5.430;2023-06-04T07:32:30;102382.81;;;18.47;51.15
70900;BME280;67902;52.154;5.430;2023-06-04T07:34:57;102368.31;;;18.79;51.44
70900;BME280;67902;52.154;5.430;2023-06-04T07:37:23;102365.00;;;19.08;51.42
70900;BME280;67902;52.154;5.430;2023-06-04T07:39:50;102369.38;;;19.09;50.64
70900;BME280;67902;52.154;5.430;2023-06-04T07:42:16;102370.88;;;19.22;49.23
70900;BME280;67902;52.154;5.430;2023-06-04T07:44:42;102366.22;;;19.64;49.58
70900;BME280;67902;52.154;5.430;2023-06-04T07:47:09;102365.81;;;20.03;47.81
70900;BME280;67902;52.154;5.430;2023-06-04T07:49:35;102374.06;;;20.03;49.51
70900;BME280;67902;52.154;5.430;2023-06-04T07:52:15;102359.91;;;20.51;48.78
70900;BME280;67902;52.154;5.430;2023-06-04T07:54:42;102363.22;;;21.04;49.99
70900;BME280;67902;52.154;5.430;2023-06-04T07:57:08;102361.59;;;20.83;45.14
70900;BME280;67902;52.154;5.430;2023-06-04T07:59:36;102377.00;;;20.68;48.13
70900;BME280;67902;52.154;5.430;2023-06-04T08:02:03;102367.91;;;20.93;46.87
70900;BME280;67902;52.154;5.430;2023-06-04T08:04:29;102360.75;;;20.92;47.89
70900;BME280;67902;52.154;5.430;2023-06-04T08:06:55;102364.84;;;21.00;47.94
70900;BME280;67902;52.154;5.430;2023-06-04T08:09:22;102368.19;;;20.97;44.77
70900;BME280;67902;52.154;5.430;2023-06-04T08:11:49;102365.69;;;21.25;46.67
70900;BME280;67902;52.154;5.430;2023-06-04T08:14:15;102360.97;;;21.46;47.67
70900;BME280;67902;52.154;5.430;2023-06-04T08:16:41;102372.00;;;21.46;46.28
70900;BME280;67902;52.154;5.430;2023-06-04T08:19:08;102366.94;;;21.73;45.21
70900;BME280;67902;52.154;5.430;2023-06-04T08:21:34;102364.56;;;22.16;45.94
70900;BME280;67902;52.154;5.430;2023-06-04T08:24:01;102366.91;;;21.93;47.61
70900;BME280;67902;52.154;5.430;2023-06-04T08:26:29;102363.00;;;22.00;46.11
70900;BME280;67902;52.154;5.430;2023-06-04T08:28:56;102365.47;;;22.06;47.06
70900;BME280;67902;52.154;5.430;2023-06-04T08:31:23;102365.56;;;22.40;43.96
70900;BME280;67902;52.154;5.430;2023-06-04T08:33:49;102372.69;;;22.41;45.42
70900;BME280;67902;52.154;5.430;2023-06-04T08:36:16;102369.94;;;22.41;43.87
70900;BME280;67902;52.154;5.430;2023-06-04T08:38:42;102363.38;;;22.32;45.02
70900;BME280;67902;52.154;5.430;2023-06-04T08:41:17;102362.34;;;22.62;45.36
70900;BME280;67902;52.154;5.430;2023-06-04T08:43:46;102358.34;;;22.83;42.25
70900;BME280;67902;52.154;5.430;2023-06-04T08:46:17;102359.03;;;22.98;43.10
70900;BME280;67902;52.154;5.430;2023-06-04T08:48:45;102369.16;;;23.08;44.82
70900;BME280;67902;52.154;5.430;2023-06-04T08:51:12;102365.94;;;23.25;45.96
70900;BME280;67902;52.154;5.430;2023-06-04T08:53:42;102361.53;;;23.76;43.45
70900;BME280;67902;52.154;5.430;2023-06-04T08:56:08;102366.72;;;23.83;40.34
70900;BME280;67902;52.154;5.430;2023-06-04T08:58:36;102368.31;;;23.89;41.80
70900;BME280;67902;52.154;5.430;2023-06-04T09:01:02;102365.38;;;24.22;43.19
70900;BME280;67902;52.154;5.430;2023-06-04T09:03:29;102366.44;;;24.27;42.83
70900;BME280;67902;52.154;5.430;2023-06-04T09:05:59;102374.00;;;24.58;41.07
70900;BME280;67902;52.154;5.430;2023-06-04T09:08:27;102369.69;;;24.85;38.81
70900;BME280;67902;52.154;5.430;2023-06-04T09:10:57;102375.72;;;25.05;37.97
70900;BME280;67902;52.154;5.430;2023-06-04T09:13:30;102370.19;;;25.05;36.11
70900;BME280;67902;52.154;5.430;2023-06-04T09:15:59;102363.34;;;25.30;42.25
70900;BME280;67902;52.154;5.430;2023-06-04T09:18:26;102357.91;;;25.38;37.34
70900;BME280;67902;52.154;5.430;2023-06-04T09:21:05;102365.13;;;24.94;39.34
70900;BME280;67902;52.154;5.430;2023-06-04T09:23:48;102361.75;;;24.97;39.14
70900;BME280;67902;52.154;5.430;2023-06-04T09:26:15;102361.69;;;24.83;43.27
70900;BME280;67902;52.154;5.430;2023-06-04T09:28:42;102368.03;;;25.02;40.70
70900;BME280;67902;52.154;5.430;2023-06-04T09:31:16;102357.59;;;25.26;40.55
70900;BME280;67902;52.154;5.430;2023-06-04T09:33:46;102360.75;;;25.06;40.14
70900;BME280;67902;52.154;5.430;2023-06-04T09:36:13;102372.97;;;25.05;41.18
70900;BME280;67902;52.154;5.430;2023-06-04T09:38:39;102374.44;;;25.44;41.12
70900;BME280;67902;52.154;5.430;2023-06-04T09:41:11;102370.81;;;25.62;36.25
70900;BME280;67902;52.154;5.430;2023-06-04T09:43:38;102363.00;;;25.50;37.87
70900;BME280;67902;52.154;5.430;2023-06-04T09:46:22;102362.56;;;25.43;40.76
70900;BME280;67902;52.154;5.430;2023-06-04T09:48:59;102368.63;;;25.45;38.68
70900;BME280;67902;52.154;5.430;2023-06-04T09:51:26;102366.66;;;25.46;36.52
70900;BME280;67902;52.154;5.430;2023-06-04T09:53:53;102365.72;;;25.36;38.71
70900;BME280;67902;52.154;5.430;2023-06-04T09:56:20;102357.03;;;25.57;38.24
70900;BME280;67902;52.154;5.430;2023-06-04T09:58:48;102356.31;;;25.78;38.25
70900;BME280;67902;52.154;5.430;2023-06-04T10:01:15;102359.69;;;25.89;38.17
70900;BME280;67902;52.154;5.430;2023-06-04T10:03:47;102360.31;;;25.86;36.47
70900;BME280;67902;52.154;5.430;2023-06-04T10:06:15;102363.59;;;26.15;37.38
70900;BME280;67902;52.154;5.430;2023-06-04T10:08:45;102362.34;;;26.08;37.97
70900;BME280;67902;52.154;5.430;2023-06-04T10:11:13;102362.16;;;25.90;34.51
70900;BME280;67902;52.154;5.430;2023-06-04T10:13:53;102360.66;;;26.34;32.63
70900;BME280;67902;52.154;5.430;2023-06-04T10:16:20;102354.88;;;26.44;33.46
70900;BME280;67902;52.154;5.430;2023-06-04T10:19:00;102359.78;;;26.83;36.28
70900;BME280;67902;52.154;5.430;2023-06-04T10:21:27;102346.88;;;26.87;37.41
70900;BME280;67902;52.154;5.430;2023-06-04T10:23:54;102359.25;;;26.81;34.33
70900;BME280;67902;52.154;5.430;2023-06-04T10:26:21;102358.25;;;26.99;35.14
70900;BME280;67902;52.154;5.430;2023-06-04T10:28:48;102354.72;;;26.85;34.70
70900;BME280;67902;52.154;5.430;2023-06-04T10:31:15;102354.75;;;26.71;33.25
70900;BME280;67902;52.154;5.430;2023-06-04T10:33:42;102354.88;;;26.44;34.14
70900;BME280;67902;52.154;5.430;2023-06-04T10:36:15;102350.38;;;26.34;35.86
70900;BME280;67902;52.154;5.430;2023-06-04T10:38:49;102355.44;;;26.55;33.70
70900;BME280;67902;52.154;5.430;2023-06-04T10:41:20;102359.41;;;26.40;33.54
70900;BME280;67902;52.154;5.430;2023-06-04T10:43:59;102355.81;;;26.39;34.71
70900;BME280;67902;52.154;5.430;2023-06-04T10:46:37;102351.41;;;26.38;34.01
70900;BME280;67902;52.154;5.430;2023-06-04T10:49:05;102357.59;;;26.58;34.39
70900;BME280;67902;52.154;5.430;2023-06-04T10:51:33;102340.63;;;26.81;37.69
70900;BME280;67902;52.154;5.430;2023-06-04T10:54:01;102344.19;;;26.60;33.69
70900;BME280;67902;52.154;5.430;2023-06-04T10:56:30;102349.16;;;26.85;33.76
70900;BME280;67902;52.154;5.430;2023-06-04T10:59:01;102351.41;;;27.05;37.11
70900;BME280;67902;52.154;5.430;2023-06-04T11:01:38;102352.75;;;26.63;36.10
70900;BME280;67902;52.154;5.430;2023-06-04T11:04:05;102352.03;;;26.58;35.82
70900;BME280;67902;52.154;5.430;2023-06-04T11:06:31;102361.84;;;26.41;38.00
70900;BME280;67902;52.154;5.430;2023-06-04T11:09:03;102347.34;;;26.67;35.25
70900;BME280;67902;52.154;5.430;2023-06-04T11:11:30;102352.53;;;27.04;35.30
70900;BME280;67902;52.154;5.430;2023-06-04T11:14:12;102346.72;;;27.14;33.06
70900;BME280;67902;52.154;5.430;2023-06-04T11:16:39;102335.31;;;27.24;34.93
70900;BME280;67902;52.154;5.430;2023-06-04T11:19:05;102347.44;;;26.97;35.01
70900;BME280;67902;52.154;5.430;2023-06-04T11:21:34;102341.50;;;27.21;34.33
70900;BME280;67902;52.154;5.430;2023-06-04T11:24:02;102344.78;;;27.23;33.62
70900;BME280;67902;52.154;5.430;2023-06-04T11:28:57;102330.56;;;28.12;30.33
70900;BME280;67902;52.154;5.430;2023-06-04T11:31:24;102329.25;;;28.27;33.11
70900;BME280;67902;52.154;5.430;2023-06-04T11:33:51;102321.53;;;28.49;32.76
70900;BME280;67902;52.154;5.430;2023-06-04T11:36:27;102320.88;;;28.52;33.19
70900;BME280;67902;52.154;5.430;2023-06-04T11:39:01;102322.47;;;28.02;32.83
70900;BME280;67902;52.154;5.430;2023-06-04T11:41:32;102321.22;;;28.25;32.36
70900;BME280;67902;52.154;5.430;2023-06-04T11:44:04;102326.28;;;28.57;32.61
70900;BME280;67902;52.154;5.430;2023-06-04T11:46:35;102325.97;;;28.42;35.31
70900;BME280;67902;52.154;5.430;2023-06-04T11:49:02;102318.91;;;28.70;31.07
70900;BME280;67902;52.154;5.430;2023-06-04T11:51:30;102321.19;;;28.59;30.27
70900;BME280;67902;52.154;5.430;2023-06-04T11:53:56;102315.16;;;28.66;30.28
70900;BME280;67902;52.154;5.430;2023-06-04T11:56:24;102313.00;;;28.54;31.99
70900;BME280;67902;52.154;5.430;2023-06-04T11:58:54;102313.34;;;28.27;31.48
70900;BME280;67902;52.154;5.430;2023-06-04T12:01:21;102309.91;;;28.22;33.47
70900;BME280;67902;52.154;5.430;2023-06-04T12:03:47;102297.13;;;28.29;32.88
70900;BME280;67902;52.154;5.430;2023-06-04T12:08:54;102305.97;;;28.65;31.90
70900;BME280;67902;52.154;5.430;2023-06-04T12:11:34;102297.09;;;28.55;31.75
70900;BME280;67902;52.154;5.430;2023-06-04T12:14:06;102299.22;;;28.66;31.48
70900;BME280;67902;52.154;5.430;2023-06-04T12:16:33;102291.72;;;29.13;31.22
70900;BME280;67902;52.154;5.430;2023-06-04T12:19:13;102296.25;;;28.80;30.13
70900;BME280;67902;52.154;5.430;2023-06-04T12:21:39;102293.19;;;28.64;31.69
70900;BME280;67902;52.154;5.430;2023-06-04T12:24:08;102300.38;;;28.74;31.34
70900;BME280;67902;52.154;5.430;2023-06-04T12:26:37;102302.13;;;28.96;31.77
70900;BME280;67902;52.154;5.430;2023-06-04T12:29:13;102301.22;;;29.21;30.34
70900;BME280;67902;52.154;5.430;2023-06-04T12:31:42;102299.41;;;29.25;30.89
70900;BME280;67902;52.154;5.430;2023-06-04T12:34:10;102298.94;;;29.14;29.39
70900;BME280;67902;52.154;5.430;2023-06-04T12:36:37;102294.72;;;29.46;28.56
70900;BME280;67902;52.154;5.430;2023-06-04T12:39:04;102297.63;;;29.12;31.38
70900;BME280;67902;52.154;5.430;2023-06-04T12:41:32;102304.19;;;29.54;29.54
70900;BME280;67902;52.154;5.430;2023-06-04T12:44:01;102292.25;;;29.74;31.35
70900;BME280;67902;52.154;5.430;2023-06-04T12:46:28;102296.47;;;29.88;31.17
70900;BME280;67902;52.154;5.430;2023-06-04T12:48:54;102298.56;;;29.62;28.76
70900;BME280;67902;52.154;5.430;2023-06-04T12:51:21;102298.13;;;29.52;29.93
70900;BME280;67902;52.154;5.430;2023-06-04T12:53:48;102300.88;;;29.60;31.52
70900;BME280;67902;52.154;5.430;2023-06-04T12:56:14;102297.97;;;29.77;30.44
70900;BME280;67902;52.154;5.430;2023-06-04T12:58:41;102293.53;;;29.85;30.47
70900;BME280;67902;52.154;5.430;2023-06-04T13:01:07;102295.63;;;29.59;28.41
70900;BME280;67902;52.154;5.430;2023-06-04T13:03:36;102292.78;;;29.97;28.34